Time;durP1;ratioP1;P1;durP2;ratioP2;P2;SDS_P1;SDS_P2;PMS_P1;PMS_P2;Temp;Humidity;BMP_temperature;BMP_pressure;BME280_temperature;BME280_humidity;BME280_pressure;Samples;Min_cycle;Max_cycle;Signal;HPM_P1;HPM_P2
2022/10/14 00:01:12;;;;;;;78.72;44.25;;;;;;;10.25;82.43;98847.16;1738681;82;25491;-57
2022/10/14 00:03:40;;;;;;;76.57;43.13;;;;;;;10.32;82.62;98848.91;1738393;82;25611;-57
2022/10/14 00:06:11;;;;;;;84.83;44.23;;;;;;;10.36;82.21;98852.65;1738645;82;26521;-58
2022/10/14 00:08:37;;;;;;;82.65;41.85;;;;;;;10.34;82.19;98845.87;1738750;82;25646;-57
2022/10/14 00:11:14;;;;;;;81.02;42.43;;;;;;;10.29;82.13;98843.50;1738485;82;27585;-58
2022/10/14 00:13:41;;;;;;;79.70;42.45;;;;;;;10.32;82.43;98843.44;1737436;82;25638;-57
2022/10/14 00:16:24;;;;;;;82.15;42.27;;;;;;;10.29;82.11;98841.31;1738861;82;25406;-58
2022/10/14 00:18:51;;;;;;;73.40;40.00;;;;;;;10.25;82.38;98843.05;1738109;82;27770;-58
2022/10/14 00:21:19;;;;;;;85.07;44.75;;;;;;;10.16;82.84;98844.31;1738954;82;25412;-57
2022/10/14 00:23:46;;;;;;;84.58;45.70;;;;;;;10.07;83.21;98834.64;1738849;82;28336;-58
2022/10/14 00:26:18;;;;;;;80.17;44.03;;;;;;;10.03;83.67;98837.75;1738335;82;25645;-57
2022/10/14 00:28:45;;;;;;;80.57;43.85;;;;;;;10.01;83.61;98835.31;1738793;82;25642;-58
2022/10/14 00:31:11;;;;;;;81.10;42.25;;;;;;;10.04;83.50;98833.88;1738791;82;25883;-57
2022/10/14 00:33:37;;;;;;;73.33;40.50;;;;;;;10.08;83.32;98827.25;1743224;82;25432;-58
2022/10/14 00:36:06;;;;;;;71.57;39.40;;;;;;;10.10;83.13;98831.87;1743683;82;27369;-58
2022/10/14 00:38:34;;;;;;;78.30;42.20;;;;;;;10.19;83.08;98833.32;1743962;82;25658;-58
2022/10/14 00:41:01;;;;;;;76.72;39.85;;;;;;;10.26;82.93;98829.59;1744015;82;25616;-57
2022/10/14 00:43:28;;;;;;;76.33;40.23;;;;;;;10.26;82.64;98821.38;1743795;82;25797;-59
2022/10/14 00:45:55;;;;;;;79.22;41.33;;;;;;;10.21;82.64;98823.67;1744216;82;25579;-58
2022/10/14 00:48:24;;;;;;;73.17;39.83;;;;;;;10.19;82.70;98831.38;1743937;82;26830;-58
2022/10/14 00:50:54;;;;;;;66.80;36.83;;;;;;;10.11;83.06;98819.24;1743874;82;25489;-58
2022/10/14 00:53:21;;;;;;;68.97;38.43;;;;;;;10.01;83.42;98827.09;1715036;82;25686;-59
2022/10/14 00:55:48;;;;;;;71.22;38.23;;;;;;;9.96;83.72;98822.30;1743669;82;25818;-58
2022/10/14 00:58:15;;;;;;;71.22;38.65;;;;;;;9.91;83.70;98817.73;1743755;82;25659;-57
2022/10/14 01:00:41;;;;;;;70.37;39.73;;;;;;;9.93;83.48;98817.43;1743911;82;27589;-58
2022/10/14 01:03:21;;;;;;;69.90;38.63;;;;;;;9.93;83.45;98811.95;1743978;82;25694;-58
2022/10/14 01:05:52;;;;;;;68.85;38.95;;;;;;;9.94;83.38;98817.13;1725499;83;25644;-59
2022/10/14 01:08:30;;;;;;;69.58;35.98;;;;;;;9.97;83.23;98815.69;1735216;82;25755;-57
2022/10/14 01:11:10;;;;;;;70.72;36.73;;;;;;;9.94;83.49;98805.36;1743381;82;25611;-58
2022/10/14 01:13:41;;;;;;;64.57;34.37;;;;;;;9.86;83.60;98809.07;1725698;83;27462;-58
2022/10/14 01:16:21;;;;;;;70.78;38.85;;;;;;;9.84;83.88;98807.77;1724361;82;25572;-57
2022/10/14 01:19:24;;;;;;;70.15;38.67;;;;;;;9.75;83.96;98808.46;1743752;82;25501;-57
2022/10/14 01:22:01;;;;;;;71.77;40.00;;;;;;;9.70;84.20;98807.77;1743811;82;25472;-58
2022/10/14 01:24:44;;;;;;;69.42;38.58;;;;;;;9.68;84.15;98804.50;1724908;82;25576;-59
2022/10/14 01:27:34;;;;;;;67.40;36.33;;;;;;;9.70;84.10;98807.77;1743887;82;27361;-58
2022/10/14 01:30:08;;;;;;;73.37;37.75;;;;;;;9.65;84.33;98805.94;1743828;81;25517;-58
2022/10/14 01:33:09;;;;;;;68.00;37.73;;;;;;;9.67;84.35;98800.95;1746855;81;25388;-58
2022/10/14 01:36:01;;;;;;;72.25;37.75;;;;;;;9.68;84.14;98795.75;1752366;81;25824;-58
2022/10/14 01:38:48;;;;;;;65.87;38.60;;;;;;;9.73;84.09;98795.63;1752641;81;25418;-58
2022/10/14 01:41:21;;;;;;;74.25;37.70;;;;;;;9.79;83.98;98785.41;1752579;81;27523;-58
2022/10/14 01:43:51;;;;;;;69.97;38.08;;;;;;;9.78;83.83;98790.61;1722546;82;25446;-59
2022/10/14 01:46:21;;;;;;;69.30;37.33;;;;;;;9.74;83.87;98790.43;1752223;81;25484;-57
2022/10/14 01:48:55;;;;;;;64.00;38.15;;;;;;;9.70;83.94;98790.77;1752645;81;25679;-58
2022/10/14 01:51:37;;;;;;;68.00;37.58;;;;;;;9.69;84.09;98782.86;1752659;81;25578;-58
2022/10/14 01:54:16;;;;;;;72.55;38.13;;;;;;;9.71;84.00;98788.30;1735656;82;28817;-57
2022/10/14 01:56:46;;;;;;;68.35;37.80;;;;;;;9.71;84.09;98788.30;1735551;82;25582;-59
2022/10/14 01:59:15;;;;;;;68.35;38.88;;;;;;;9.77;83.84;98780.79;1752477;81;25746;-56
2022/10/14 02:01:41;;;;;;;67.90;35.88;;;;;;;9.70;83.88;98779.03;1752726;81;26511;-59
2022/10/14 02:04:20;;;;;;;73.20;38.58;;;;;;;9.60;84.34;98779.48;1752759;81;25567;-61
2022/10/14 02:07:01;;;;;;;63.40;35.43;;;;;;;9.57;84.32;98775.98;1752615;81;28126;-57
2022/10/14 02:09:32;;;;;;;70.80;37.98;;;;;;;9.57;84.26;98775.98;1735659;82;27180;-57
2022/10/14 02:12:28;;;;;;;66.35;37.78;;;;;;;9.53;84.41;98779.09;1752386;81;25651;-58
2022/10/14 02:15:19;;;;;;;63.25;36.42;;;;;;;9.58;84.48;98772.70;1752379;81;25911;-60
2022/10/14 02:17:53;;;;;;;69.22;37.67;;;;;;;9.53;84.43;98766.20;1691152;84;25704;-57
2022/10/14 02:20:34;;;;;;;65.65;37.10;;;;;;;9.48;84.42;98772.33;1661843;86;27767;-58
2022/10/14 02:23:05;;;;;;;67.83;37.67;;;;;;;9.43;84.60;98762.30;1662194;86;25690;-59
2022/10/14 02:25:37;;;;;;;66.42;37.17;;;;;;;9.41;84.86;98757.13;1704758;84;25544;-58
2022/10/14 02:28:07;;;;;;;67.92;36.45;;;;;;;9.43;85.04;98754.09;1680644;85;25865;-57
2022/10/14 02:30:38;;;;;;;70.47;38.80;;;;;;;9.43;84.98;98755.46;1680860;85;25778;-59
2022/10/14 02:33:06;;;;;;;69.58;36.83;;;;;;;9.44;84.91;98754.34;1684357;84;28269;-60
2022/10/14 02:35:34;;;;;;;74.75;40.17;;;;;;;9.47;85.06;98752.36;1691471;84;27181;-59
2022/10/14 02:38:02;;;;;;;69.22;37.53;;;;;;;9.49;84.89;98750.15;1691499;84;25515;-58
2022/10/14 02:40:44;;;;;;;77.05;37.70;;;;;;;9.53;84.71;98754.47;1691673;84;25726;-60
2022/10/14 02:43:12;;;;;;;67.35;37.17;;;;;;;9.53;84.52;98753.88;1691441;84;25749;-60
2022/10/14 02:45:40;;;;;;;71.15;37.85;;;;;;;9.54;84.49;98755.53;1691711;84;27401;-58
2022/10/14 02:48:08;;;;;;;72.80;38.33;;;;;;;9.51;84.54;98754.77;1691642;84;25853;-57
2022/10/14 02:50:34;;;;;;;62.30;34.30;;;;;;;9.51;84.65;98753.95;1691448;84;25646;-58
2022/10/14 02:53:00;;;;;;;69.42;37.38;;;;;;;9.47;84.71;98753.73;1691599;84;25919;-60
2022/10/14 02:55:27;;;;;;;69.30;37.70;;;;;;;9.43;84.89;98759.56;1716546;83;25692;-57
2022/10/14 02:57:53;;;;;;;68.05;38.05;;;;;;;9.40;85.11;98756.07;1683066;85;27482;-57
2022/10/14 03:00:20;;;;;;;70.42;38.42;;;;;;;9.37;85.16;98752.03;1682963;85;25506;-59
2022/10/14 03:02:52;;;;;;;63.02;36.53;;;;;;;9.35;85.23;98760.26;1682724;84;25663;-59
2022/10/14 03:05:25;;;;;;;62.08;36.73;;;;;;;9.31;85.33;98749.68;1682928;84;25779;-61
2022/10/14 03:07:55;;;;;;;70.10;37.58;;;;;;;9.29;85.53;98750.80;1682743;85;25590;-60
2022/10/14 03:10:30;;;;;;;66.15;37.03;;;;;;;9.32;85.64;98752.11;1683171;85;28295;-61
2022/10/14 03:13:06;;;;;;;70.42;39.38;;;;;;;9.35;85.39;98752.88;1682782;85;25631;-59
2022/10/14 03:15:40;;;;;;;70.28;38.53;;;;;;;9.44;85.46;98754.92;1682825;85;25687;-57
2022/10/14 03:18:06;;;;;;;69.75;39.05;;;;;;;9.52;85.05;98753.64;1682977;85;26244;-57
2022/10/14 03:20:33;;;;;;;66.45;38.45;;;;;;;9.58;85.00;98750.81;1682812;84;25413;-58
2022/10/14 03:22:59;;;;;;;64.20;37.33;;;;;;;9.64;84.79;98751.75;1683033;85;27649;-59
2022/10/14 03:25:26;;;;;;;72.37;38.78;;;;;;;9.70;84.83;98759.30;1682992;84;25934;-58
2022/10/14 03:27:52;;;;;;;61.77;35.48;;;;;;;9.83;84.88;98757.67;1682776;85;25533;-58
2022/10/14 03:30:18;;;;;;;65.52;35.92;;;;;;;9.89;84.29;98757.00;1683099;84;25759;-59
2022/10/14 03:32:45;;;;;;;67.30;37.70;;;;;;;10.01;84.40;98760.57;1693217;81;25886;-58
2022/10/14 03:35:11;;;;;;;67.22;37.38;;;;;;;10.03;83.75;98763.82;1741955;82;28398;-58
2022/10/14 03:37:37;;;;;;;65.08;37.17;;;;;;;9.99;83.91;98756.77;1741820;82;25488;-58
2022/10/14 03:40:05;;;;;;;66.45;37.65;;;;;;;10.00;83.76;98758.41;1741870;82;25676;-58
2022/10/14 03:42:31;;;;;;;73.95;40.83;;;;;;;9.96;83.37;98762.86;1742335;81;26385;-57
2022/10/14 03:44:57;;;;;;;78.25;42.45;;;;;;;9.89;83.71;98757.82;1741935;81;25669;-60
2022/10/14 03:47:23;;;;;;;79.72;43.92;;;;;;;9.89;83.86;98762.47;1741909;81;27412;-60
2022/10/14 03:49:49;;;;;;;71.82;42.15;;;;;;;9.93;83.68;98760.73;1741807;82;25417;-58
2022/10/14 03:52:15;;;;;;;105.83;49.88;;;;;;;9.95;83.44;98757.14;1741889;81;25614;-60
2022/10/14 03:54:42;;;;;;;74.05;39.67;;;;;;;9.97;83.35;98759.58;1741929;81;25794;-61
2022/10/14 03:57:08;;;;;;;74.50;41.28;;;;;;;10.01;83.30;98760.02;1742059;81;25434;-58
2022/10/14 03:59:34;;;;;;;72.37;41.00;;;;;;;10.03;83.04;98755.61;1742059;81;27499;-58
2022/10/14 04:02:00;;;;;;;75.25;41.05;;;;;;;10.02;82.92;98760.84;1741715;81;25615;-58
2022/10/14 04:04:26;;;;;;;73.85;41.42;;;;;;;9.96;82.96;98756.02;1742270;81;25419;-60
2022/10/14 04:06:53;;;;;;;69.45;39.03;;;;;;;9.89;83.07;98754.26;1741822;81;27888;-59
2022/10/14 04:09:19;;;;;;;68.05;39.33;;;;;;;9.81;83.28;98751.69;1742128;82;25484;-57
2022/10/14 04:11:45;;;;;;;71.90;40.65;;;;;;;9.75;83.35;98749.63;1742446;82;27661;-57
2022/10/14 04:14:12;;;;;;;64.95;37.35;;;;;;;9.72;83.48;98750.78;1742230;81;25429;-57
2022/10/14 04:16:38;;;;;;;72.42;39.18;;;;;;;9.73;83.70;98744.21;1742187;81;25722;-58
2022/10/14 04:19:04;;;;;;;71.12;39.55;;;;;;;9.73;83.41;98745.58;1742247;81;25764;-57
2022/10/14 04:21:31;;;;;;;72.45;39.33;;;;;;;9.73;83.33;98745.58;1742028;82;25595;-57
2022/10/14 04:23:57;;;;;;;76.42;42.48;;;;;;;9.75;83.45;98741.95;1742281;81;27440;-57
2022/10/14 04:26:23;;;;;;;98.00;47.55;;;;;;;9.78;83.46;98744.91;1741837;81;27207;-57
2022/10/14 04:28:49;;;;;;;68.05;38.95;;;;;;;9.77;83.42;98744.66;1742285;81;25636;-57
2022/10/14 04:31:15;;;;;;;85.83;46.98;;;;;;;9.87;83.81;98742.80;1742341;82;25896;-57
2022/10/14 04:33:42;;;;;;;73.85;42.05;;;;;;;10.01;83.54;98743.59;1727179;81;25714;-57
2022/10/14 04:36:09;;;;;;;73.07;41.48;;;;;;;10.10;83.27;98740.14;1731939;82;27544;-59
2022/10/14 04:38:35;;;;;;;107.95;60.33;;;;;;;10.11;83.21;98739.83;1713980;83;25422;-57
2022/10/14 04:41:01;;;;;;;84.72;44.55;;;;;;;10.13;82.99;98734.05;1731897;82;25478;-58
2022/10/14 04:43:28;;;;;;;82.72;45.20;;;;;;;10.08;83.28;98736.34;1714096;83;25845;-60
2022/10/14 04:45:54;;;;;;;73.17;39.10;;;;;;;10.04;83.33;98735.31;1731904;82;25447;-57
2022/10/14 04:48:20;;;;;;;64.70;37.08;;;;;;;9.97;83.38;98732.20;1695517;83;26749;-58
2022/10/14 04:50:52;;;;;;;61.70;35.10;;;;;;;9.88;83.66;98723.33;1731961;82;26084;-57
2022/10/14 04:53:19;;;;;;;60.05;33.67;;;;;;;9.79;83.79;98722.46;1714412;83;25603;-60
2022/10/14 04:55:48;;;;;;;81.20;42.55;;;;;;;9.72;84.00;98722.87;1731881;81;25786;-57
2022/10/14 04:58:16;;;;;;;66.70;36.90;;;;;;;9.68;84.17;98719.68;1714167;83;25568;-58
2022/10/14 05:00:42;;;;;;;68.67;38.65;;;;;;;9.69;84.26;98718.00;1732139;82;28310;-57
2022/10/14 05:03:08;;;;;;;67.05;37.93;;;;;;;9.76;84.49;98716.23;1713939;83;25683;-58
2022/10/14 05:05:34;;;;;;;67.92;38.17;;;;;;;9.86;84.41;98719.29;1731998;81;25679;-58
2022/10/14 05:08:01;;;;;;;67.25;37.58;;;;;;;9.97;84.15;98718.51;1714380;83;25432;-58
2022/10/14 05:10:27;;;;;;;64.22;37.15;;;;;;;9.99;83.86;98714.91;1731888;82;25604;-56
2022/10/14 05:12:54;;;;;;;64.03;35.73;;;;;;;10.03;83.81;98715.91;1714060;83;28701;-57
2022/10/14 05:15:20;;;;;;;67.05;36.60;;;;;;;10.10;84.01;98717.66;1732050;81;25424;-59
2022/10/14 05:17:47;;;;;;;68.10;38.83;;;;;;;10.19;83.88;98721.83;1714297;83;25484;-57
2022/10/14 05:20:13;;;;;;;62.70;37.75;;;;;;;10.17;83.64;98715.29;1732235;81;25793;-57
2022/10/14 05:22:40;;;;;;;65.55;37.23;;;;;;;10.12;83.79;98709.95;1714197;83;25456;-58
2022/10/14 05:25:07;;;;;;;65.78;37.50;;;;;;;10.13;83.92;98711.56;1732217;82;27354;-57
2022/10/14 05:27:33;;;;;;;61.48;36.53;;;;;;;10.17;83.93;98711.77;1714235;83;25676;-57
2022/10/14 05:30:00;;;;;;;64.12;35.85;;;;;;;10.17;83.57;98707.08;1732369;82;25633;-57
2022/10/14 05:32:26;;;;;;;63.55;35.75;;;;;;;10.20;83.64;98715.80;1714013;83;25665;-57
2022/10/14 05:34:53;;;;;;;63.48;36.38;;;;;;;10.21;83.51;98711.38;1739981;82;25479;-57
2022/10/14 05:37:19;;;;;;;65.65;36.50;;;;;;;10.26;83.66;98713.20;1741985;82;27563;-57
2022/10/14 05:39:45;;;;;;;63.80;36.35;;;;;;;10.27;83.55;98707.41;1742246;81;25664;-57
2022/10/14 05:42:12;;;;;;;63.70;35.78;;;;;;;10.35;83.70;98710.52;1742297;81;25473;-57
2022/10/14 05:44:38;;;;;;;66.45;37.17;;;;;;;10.48;83.46;98709.67;1742433;81;25882;-57
2022/10/14 05:47:04;;;;;;;68.92;35.23;;;;;;;10.47;83.17;98711.34;1742389;81;25469;-57
2022/10/14 05:49:31;;;;;;;62.15;34.23;;;;;;;10.45;83.30;98708.89;1742257;81;27605;-57
2022/10/14 05:51:57;;;;;;;68.72;36.70;;;;;;;10.41;83.42;98712.02;1742024;82;25602;-58
2022/10/14 05:54:24;;;;;;;63.35;35.45;;;;;;;10.38;83.49;98705.78;1742053;82;25665;-57
2022/10/14 05:56:50;;;;;;;59.58;35.25;;;;;;;10.35;83.84;98708.59;1742067;82;26000;-57
2022/10/14 05:59:16;;;;;;;67.45;35.58;;;;;;;10.31;84.16;98712.27;1742077;81;25487;-57
2022/10/14 06:01:42;;;;;;;66.77;37.00;;;;;;;10.25;84.29;98712.37;1742444;81;28144;-57
2022/10/14 06:04:20;;;;;;;68.57;38.50;;;;;;;10.24;84.39;98710.77;1742217;81;25664;-57
2022/10/14 06:06:47;;;;;;;64.22;37.93;;;;;;;10.27;84.14;98714.25;1742085;82;25489;-57
2022/10/14 06:09:14;;;;;;;67.17;36.15;;;;;;;10.33;83.98;98720.41;1741929;82;25704;-57
2022/10/14 06:11:40;;;;;;;66.82;35.60;;;;;;;10.37;84.03;98712.39;1742497;81;25433;-57
2022/10/14 06:14:07;;;;;;;61.75;36.53;;;;;;;10.41;84.09;98712.02;1742043;81;27452;-58
2022/10/14 06:16:33;;;;;;;65.97;38.73;;;;;;;10.49;83.87;98710.48;1741999;81;25607;-57
2022/10/14 06:19:00;;;;;;;63.17;36.55;;;;;;;10.54;83.79;98713.11;1742341;82;25603;-59
2022/10/14 06:21:26;;;;;;;67.15;38.25;;;;;;;10.56;83.76;98719.07;1741875;82;25719;-58
2022/10/14 06:23:53;;;;;;;69.20;37.83;;;;;;;10.61;83.70;98724.98;1742017;82;25645;-57
2022/10/14 06:26:19;;;;;;;80.35;41.00;;;;;;;10.66;83.68;98719.39;1742054;81;27507;-59
2022/10/14 06:28:45;;;;;;;79.30;40.28;;;;;;;10.76;83.74;98721.05;1742364;81;25579;-58
2022/10/14 06:31:12;;;;;;;75.62;39.80;;;;;;;10.78;83.55;98726.48;1741936;82;25660;-57
2022/10/14 06:33:39;;;;;;;66.12;37.45;;;;;;;10.81;83.64;98723.67;1736195;81;25906;-57
2022/10/14 06:36:08;;;;;;;66.17;37.48;;;;;;;10.88;83.71;98726.77;1731999;82;25436;-57
2022/10/14 06:38:48;;;;;;;71.00;36.45;;;;;;;10.95;83.64;98729.07;1714667;83;27138;-60
2022/10/14 06:41:17;;;;;;;68.42;37.88;;;;;;;11.02;83.39;98729.97;1732321;82;25630;-61
2022/10/14 06:43:43;;;;;;;69.58;37.73;;;;;;;11.08;83.45;98728.72;1714180;83;25646;-57
2022/10/14 06:46:10;;;;;;;65.25;38.05;;;;;;;11.20;83.41;98729.48;1732153;81;25724;-57
2022/10/14 06:48:36;;;;;;;68.57;38.70;;;;;;;11.32;83.09;98728.92;1714087;83;25488;-57
2022/10/14 06:51:04;;;;;;;71.20;37.17;;;;;;;11.53;82.86;98735.19;1732213;82;27443;-57
2022/10/14 06:53:30;;;;;;;66.25;36.20;;;;;;;11.65;82.61;98735.94;1714092;83;25452;-58
2022/10/14 06:56:05;;;;;;;63.50;35.85;;;;;;;11.78;82.56;98737.74;1731999;82;25520;-59
2022/10/14 06:58:33;;;;;;;68.40;37.60;;;;;;;11.95;82.81;98736.73;1714390;83;25832;-57
2022/10/14 07:01:05;;;;;;;70.10;38.13;;;;;;;12.19;82.54;98739.61;1731989;82;25721;-59
2022/10/14 07:03:35;;;;;;;63.23;34.05;;;;;;;12.35;82.04;98731.70;1714450;83;28027;-59
2022/10/14 07:06:04;;;;;;;76.50;39.37;;;;;;;12.51;81.93;98734.75;1714351;82;26100;-58
2022/10/14 07:08:31;;;;;;;56.88;31.82;;;;;;;12.69;81.99;98728.66;1732068;82;25618;-57
2022/10/14 07:10:57;;;;;;;53.90;32.60;;;;;;;12.85;81.70;98728.15;1714408;83;25680;-59
2022/10/14 07:13:24;;;;;;;58.95;32.17;;;;;;;12.99;81.33;98730.14;1732126;82;25428;-58
2022/10/14 07:15:51;;;;;;;60.58;33.80;;;;;;;13.11;80.59;98732.20;1714125;83;27390;-58
2022/10/14 07:18:18;;;;;;;105.75;42.20;;;;;;;13.21;80.75;98735.73;1731933;82;25637;-58
2022/10/14 07:20:45;;;;;;;49.15;24.45;;;;;;;13.34;80.66;98730.58;1714368;83;25416;-61
2022/10/14 07:23:12;;;;;;;42.65;22.93;;;;;;;13.41;79.50;98732.80;1732130;82;25731;-59
2022/10/14 07:25:38;;;;;;;75.15;33.55;;;;;;;13.43;79.68;98733.28;1714250;83;25592;-57
2022/10/14 07:28:05;;;;;;;43.58;24.20;;;;;;;13.45;79.94;98740.66;1731916;82;27402;-57
2022/10/14 07:30:32;;;;;;;60.78;29.25;;;;;;;13.47;79.39;98746.62;1713967;83;25484;-58
2022/10/14 07:32:59;;;;;;;69.55;31.42;;;;;;;13.48;79.38;98736.42;1732137;82;25631;-58
2022/10/14 07:35:26;;;;;;;58.10;29.23;;;;;;;13.49;79.47;98740.22;1715316;82;25742;-58
2022/10/14 07:37:54;;;;;;;47.27;27.20;;;;;;;13.55;79.21;98733.98;1736540;82;25450;-61
2022/10/14 07:40:21;;;;;;;40.58;25.90;;;;;;;13.58;78.52;98727.81;1736471;82;29553;-59
2022/10/14 07:42:47;;;;;;;41.58;24.57;;;;;;;13.60;78.43;98725.55;1736800;81;25469;-61
2022/10/14 07:45:16;;;;;;;40.15;24.77;;;;;;;13.66;78.52;98730.28;1736249;82;25622;-60
2022/10/14 07:47:44;;;;;;;58.15;27.90;;;;;;;13.76;78.57;98738.16;1736309;82;25599;-61
2022/10/14 07:50:11;;;;;;;67.42;30.40;;;;;;;13.92;77.66;98743.08;1736688;81;25692;-61
2022/10/14 07:52:37;;;;;;;71.92;31.77;;;;;;;13.92;77.66;98743.08;1736336;81;27470;-61
2022/10/14 07:55:06;;;;;;;35.80;20.08;;;;;;;13.95;77.84;98738.28;1736590;82;25670;-60
2022/10/14 07:57:32;;;;;;;61.37;28.55;;;;;;;13.94;77.17;98740.81;1736807;82;25653;-62
2022/10/14 07:59:59;;;;;;;78.42;33.20;;;;;;;13.91;77.72;98737.34;1736229;82;27770;-60
2022/10/14 08:02:34;;;;;;;52.90;24.75;;;;;;;13.91;77.72;98737.34;1736659;82;25678;-62
2022/10/14 08:05:00;;;;;;;56.55;27.27;;;;;;;14.00;77.50;98740.03;1718852;82;27595;-61
2022/10/14 08:07:28;;;;;;;32.65;20.68;;;;;;;14.02;77.49;98743.28;1736358;81;25672;-62
2022/10/14 08:09:55;;;;;;;48.87;23.60;;;;;;;14.07;76.89;98736.17;1736747;81;25608;-60
2022/10/14 08:12:21;;;;;;;47.55;24.75;;;;;;;14.14;76.90;98741.16;1736420;82;25717;-61
2022/10/14 08:14:47;;;;;;;42.65;20.70;;;;;;;14.14;76.90;98741.16;1736773;81;25476;-60
2022/10/14 08:17:14;;;;;;;47.65;25.62;;;;;;;14.15;76.80;98743.58;1736308;82;27374;-58
2022/10/14 08:19:40;;;;;;;50.48;24.10;;;;;;;14.15;76.80;98743.58;1736472;82;25469;-60
2022/10/14 08:22:07;;;;;;;71.20;29.25;;;;;;;14.19;76.74;98742.31;1736396;81;25735;-59
2022/10/14 08:24:34;;;;;;;29.98;16.42;;;;;;;14.17;76.64;98742.66;1736336;82;25724;-58
2022/10/14 08:27:00;;;;;;;32.60;18.85;;;;;;;14.15;75.91;98742.77;1736367;82;25656;-61
2022/10/14 08:29:27;;;;;;;33.40;17.67;;;;;;;14.07;76.12;98740.89;1736630;81;27449;-61
2022/10/14 08:31:54;;;;;;;44.25;22.93;;;;;;;14.01;76.62;98743.02;1736238;82;25619;-60
2022/10/14 08:34:23;;;;;;;41.15;21.62;;;;;;;14.01;76.62;98743.02;1729986;81;25679;-62
2022/10/14 08:36:50;;;;;;;39.35;21.45;;;;;;;14.04;76.30;98747.86;1732055;82;25681;-58
2022/10/14 08:39:18;;;;;;;58.20;28.12;;;;;;;14.01;76.87;98736.13;1714348;83;25462;-57
2022/10/14 08:42:29;;;;;;;52.27;24.23;;;;;;;14.18;76.48;98749.80;1732138;82;27365;-57
2022/10/14 08:45:07;;;;;;;37.98;21.10;;;;;;;14.34;76.28;98742.87;1714252;83;25658;-62
2022/10/14 08:47:39;;;;;;;35.85;19.00;;;;;;;14.49;76.22;98740.88;1714199;82;25948;-58
2022/10/14 08:50:20;;;;;;;52.62;24.35;;;;;;;14.49;76.22;98740.88;1732047;82;25774;-57
2022/10/14 08:52:52;;;;;;;;;;;;;;;14.67;75.64;98742.08;1716558;83;25525;-59
2022/10/14 08:55:41;;;;;;;48.50;24.95;;;;;;;14.84;75.51;98743.89;1714257;82;27332;-61
2022/10/14 08:58:27;;;;;;;44.40;23.20;;;;;;;14.99;75.25;98740.23;1732120;81;25935;-57
2022/10/14 09:00:55;;;;;;;33.42;21.35;;;;;;;15.16;74.52;98734.53;1714097;83;25463;-58
2022/10/14 09:03:31;;;;;;;35.20;20.55;;;;;;;15.34;74.29;98732.94;1732234;82;26371;-58
2022/10/14 09:06:08;;;;;;;37.90;21.37;;;;;;;15.58;73.70;98731.91;1714186;83;25425;-57
2022/10/14 09:08:46;;;;;;;;;;;;;;;15.86;73.85;98736.14;1734477;82;27407;-58
2022/10/14 09:11:24;;;;;;;36.08;19.17;;;;;;;16.07;72.28;98736.61;1714012;83;25438;-57
2022/10/14 09:13:59;;;;;;;31.30;17.77;;;;;;;16.24;71.37;98731.39;1731891;82;25475;-59
2022/10/14 09:16:34;;;;;;;31.48;17.30;;;;;;;16.33;70.58;98731.80;1714039;83;25731;-57
2022/10/14 09:19:39;;;;;;;29.50;17.07;;;;;;;16.25;70.38;98733.55;1714475;83;25580;-57
2022/10/14 09:22:10;;;;;;;28.15;15.72;;;;;;;16.21;70.53;98730.70;1714344;82;27756;-59
2022/10/14 09:24:37;;;;;;;48.08;24.27;;;;;;;16.15;69.96;98732.88;1713174;83;25587;-60
2022/10/14 09:27:11;;;;;;;33.88;20.65;;;;;;;16.15;71.24;98741.78;1732061;82;25494;-60
2022/10/14 09:29:52;;;;;;;42.53;21.62;;;;;;;16.28;71.11;98736.44;1713802;83;25746;-57
2022/10/14 09:32:40;;;;;;;54.73;26.35;;;;;;;16.38;70.68;98745.39;1714081;82;25659;-58
2022/10/14 09:35:27;;;;;;;37.90;19.95;;;;;;;16.43;70.11;98743.17;1716741;81;27516;-58
2022/10/14 09:37:54;;;;;;;37.58;20.20;;;;;;;16.43;69.75;98741.80;1739438;82;25694;-57
2022/10/14 09:40:34;;;;;;;50.63;25.08;;;;;;;16.59;69.70;98741.62;1743992;82;25697;-61
2022/10/14 09:43:12;;;;;;;32.35;19.77;;;;;;;16.90;69.87;98739.50;1743760;82;25739;-57
2022/10/14 09:46:06;;;;;;;42.62;21.55;;;;;;;17.21;69.27;98736.36;1744240;81;25463;-57
2022/10/14 09:48:48;;;;;;;49.70;24.85;;;;;;;17.43;68.36;98737.69;1743530;82;25981;-62
2022/10/14 09:51:23;;;;;;;41.33;21.07;;;;;;;17.66;68.44;98740.62;1744111;82;26100;-58
2022/10/14 09:53:53;;;;;;;27.00;16.50;;;;;;;17.86;67.04;98737.09;1725564;83;25575;-58
2022/10/14 09:56:35;;;;;;;40.48;20.50;;;;;;;18.13;66.48;98738.72;1725003;82;26568;-58
2022/10/14 09:59:04;;;;;;;40.83;20.82;;;;;;;18.32;65.79;98733.76;1743935;82;25437;-58
2022/10/14 10:01:41;;;;;;;34.33;19.85;;;;;;;18.51;66.19;98737.11;1714866;82;27430;-58
2022/10/14 10:04:41;;;;;;;28.20;18.17;;;;;;;18.58;63.18;98734.25;1742226;82;25593;-58
2022/10/14 10:07:30;;;;;;;31.10;19.73;;;;;;;18.43;64.82;98744.48;1744237;81;25586;-58
2022/10/14 10:10:01;;;;;;;24.98;14.93;;;;;;;18.45;64.32;98739.17;1725332;83;26536;-57
2022/10/14 10:12:31;;;;;;;29.77;16.55;;;;;;;18.33;61.86;98741.51;1744212;82;25696;-58
2022/10/14 10:15:04;;;;;;;28.92;17.77;;;;;;;18.34;63.97;98736.17;1744257;82;27365;-62
2022/10/14 10:17:35;;;;;;;30.90;18.35;;;;;;;18.51;63.31;98730.77;1743882;82;25687;-60
2022/10/14 10:20:27;;;;;;;27.48;17.65;;;;;;;18.70;62.16;98731.33;1743411;82;25488;-58
2022/10/14 10:22:55;;;;;;;29.80;15.93;;;;;;;18.75;61.92;98731.05;1714351;83;25793;-59
2022/10/14 10:25:25;;;;;;;29.20;16.20;;;;;;;18.80;61.30;98731.33;1742991;82;25465;-62
2022/10/14 10:27:54;;;;;;;29.20;16.47;;;;;;;18.83;60.90;98732.56;1744325;82;27389;-63
2022/10/14 10:30:28;;;;;;;33.05;18.42;;;;;;;19.02;61.08;98729.73;1743790;81;25440;-62
2022/10/14 10:33:39;;;;;;;27.87;17.57;;;;;;;19.40;61.09;98726.44;1714370;83;25641;-60
2022/10/14 10:36:17;;;;;;;30.60;17.48;;;;;;;19.83;60.66;98722.71;1709391;83;25804;-62
2022/10/14 10:39:03;;;;;;;27.75;15.58;;;;;;;20.25;60.07;98719.52;1692159;84;25686;-60
2022/10/14 10:41:57;;;;;;;28.00;17.77;;;;;;;20.31;58.03;98724.38;1692248;84;27453;-60
2022/10/14 10:44:42;;;;;;;27.10;17.60;;;;;;;20.16;57.44;98725.37;1691768;84;25642;-63
2022/10/14 10:47:30;;;;;;;29.72;18.40;;;;;;;19.78;57.70;98713.49;1691543;84;25651;-61
2022/10/14 10:50:10;;;;;;;30.52;18.80;;;;;;;19.65;58.59;98717.67;1691725;84;25796;-61
2022/10/14 10:53:05;;;;;;;28.42;18.25;;;;;;;19.50;59.48;98704.15;1666780;86;25504;-59
2022/10/14 10:56:10;;;;;;;26.95;17.82;;;;;;;19.45;59.40;98714.21;1617311;88;27386;-61
2022/10/14 10:58:53;;;;;;;21.82;14.93;;;;;;;19.33;59.54;98711.02;1617279;88;25694;-59
2022/10/14 11:02:03;;;;;;;25.72;17.10;;;;;;;19.28;58.92;98714.33;1617387;88;25516;-62
2022/10/14 11:04:41;;;;;;;27.80;17.17;;;;;;;19.36;59.88;98713.87;1616988;88;25771;-58
2022/10/14 11:13:44;;;;;;;23.92;14.87;;;;;;;19.37;58.04;98705.73;1626467;88;25752;-62
2022/10/14 11:16:28;;;;;;;23.95;13.43;;;;;;;19.36;59.59;98704.72;1626511;88;25734;-63
2022/10/14 11:19:01;;;;;;;21.17;13.48;;;;;;;19.90;57.83;98707.51;1626740;88;25795;-61
2022/10/14 11:21:42;;;;;;;23.98;14.90;;;;;;;20.47;57.10;98703.89;1604906;88;25533;-58
2022/10/14 11:24:57;;;;;;;22.73;16.37;;;;;;;20.79;55.47;98702.05;1626554;88;29493;-63
2022/10/14 11:27:34;;;;;;;22.87;15.10;;;;;;;21.30;55.89;98695.55;1625375;88;25550;-63
2022/10/14 11:30:13;;;;;;;26.25;16.12;;;;;;;22.04;55.07;98694.86;1625367;88;25759;-61
2022/10/14 11:33:18;;;;;;;22.62;14.23;;;;;;;22.39;53.19;98689.03;1683945;83;25779;-62
2022/10/14 11:35:56;;;;;;;20.30;14.47;;;;;;;22.76;52.02;98695.52;1685146;84;25540;-63
2022/10/14 11:38:27;;;;;;;20.77;14.50;;;;;;;23.01;51.61;98684.39;1679295;85;27524;-60
2022/10/14 11:41:21;;;;;;;23.98;15.05;;;;;;;23.21;50.38;98686.80;1678924;85;25759;-61
2022/10/14 11:44:01;;;;;;;21.73;15.23;;;;;;;23.36;50.63;98690.37;1679517;85;25672;-60
2022/10/14 11:46:41;;;;;;;22.65;15.40;;;;;;;23.41;50.04;98688.63;1679444;85;26201;-61
2022/10/14 11:49:18;;;;;;;23.63;15.33;;;;;;;23.73;50.66;98691.16;1679568;85;25500;-62